sensor_id;sensor_type;location;lat;lon;timestamp;pressure;altitude;pressure_sealevel;temperature;humidity
51053;BME280;37093;37.716;-122.060;2023-04-01T00:01:06;100668.69;;;17.38;31.36
51053;BME280;37093;37.716;-122.060;2023-04-01T00:03:34;100671.21;;;16.75;31.80
51053;BME280;37093;37.716;-122.060;2023-04-01T00:06:03;100670.75;;;17.39;31.66
51053;BME280;37093;37.716;-122.060;2023-04-01T00:08:31;100669.28;;;17.12;30.84
51053;BME280;37093;37.716;-122.060;2023-04-01T00:10:59;100667.49;;;16.92;32.26
51053;BME280;37093;37.716;-122.060;2023-04-01T00:13:28;100671.20;;;17.12;32.99
51053;BME280;37093;37.716;-122.060;2023-04-01T00:15:57;100674.17;;;16.62;31.74
51053;BME280;37093;37.716;-122.060;2023-04-01T00:18:25;100671.55;;;16.49;31.45
51053;BME280;37093;37.716;-122.060;2023-04-01T00:20:54;100671.72;;;17.03;32.00
51053;BME280;37093;37.716;-122.060;2023-04-01T00:23:22;100674.36;;;16.66;32.59
51053;BME280;37093;37.716;-122.060;2023-04-01T00:25:50;100675.09;;;15.42;33.12
51053;BME280;37093;37.716;-122.060;2023-04-01T00:28:20;100675.03;;;16.64;32.68
51053;BME280;37093;37.716;-122.060;2023-04-01T00:30:48;100670.42;;;16.34;31.42
51053;BME280;37093;37.716;-122.060;2023-04-01T00:33:17;100666.32;;;16.37;31.95
51053;BME280;37093;37.716;-122.060;2023-04-01T00:35:46;100670.73;;;16.16;33.51
51053;BME280;37093;37.716;-122.060;2023-04-01T00:38:14;100668.91;;;16.16;32.73
51053;BME280;37093;37.716;-122.060;2023-04-01T00:40:44;100669.27;;;15.98;33.04
51053;BME280;37093;37.716;-122.060;2023-04-01T00:43:15;100671.72;;;16.66;31.48
51053;BME280;37093;37.716;-122.060;2023-04-01T00:45:46;100674.97;;;16.26;32.13
51053;BME280;37093;37.716;-122.060;2023-04-01T00:48:18;100673.96;;;16.60;32.02
51053;BME280;37093;37.716;-122.060;2023-04-01T00:50:50;100673.70;;;16.88;32.39
51053;BME280;37093;37.716;-122.060;2023-04-01T00:53:20;100671.39;;;16.51;31.78
51053;BME280;37093;37.716;-122.060;2023-04-01T00:55:53;100672.40;;;16.17;32.41
51053;BME280;37093;37.716;-122.060;2023-04-01T00:58:27;100678.13;;;15.76;32.76
51053;BME280;37093;37.716;-122.060;2023-04-01T01:00:59;100674.96;;;15.54;32.68
51053;BME280;37093;37.716;-122.060;2023-04-01T01:03:28;100686.27;;;15.54;32.74
51053;BME280;37093;37.716;-122.060;2023-04-01T01:06:08;100688.48;;;15.61;33.19
51053;BME280;37093;37.716;-122.060;2023-04-01T01:08:52;100692.97;;;15.40;31.89
51053;BME280;37093;37.716;-122.060;2023-04-01T01:11:32;100688.41;;;15.79;31.59
51053;BME280;37093;37.716;-122.060;2023-04-01T01:14:09;100686.34;;;16.18;32.34
51053;BME280;37093;37.716;-122.060;2023-04-01T01:16:42;100683.70;;;16.01;31.02
51053;BME280;37093;37.716;-122.060;2023-04-01T01:19:26;100681.46;;;16.02;31.49
51053;BME280;37093;37.716;-122.060;2023-04-01T01:22:11;100678.52;;;16.41;31.30
51053;BME280;37093;37.716;-122.060;2023-04-01T01:25:00;100674.68;;;16.77;31.29
51053;BME280;37093;37.716;-122.060;2023-04-01T01:27:35;100669.40;;;16.53;31.67
51053;BME280;37093;37.716;-122.060;2023-04-01T01:30:16;100671.51;;;15.35;32.66
51053;BME280;37093;37.716;-122.060;2023-04-01T01:33:19;100673.44;;;14.71;33.18
51053;BME280;37093;37.716;-122.060;2023-04-01T01:35:51;100678.38;;;15.72;33.88
51053;BME280;37093;37.716;-122.060;2023-04-01T01:38:22;100687.24;;;15.59;34.18
51053;BME280;37093;37.716;-122.060;2023-04-01T01:40:53;100694.14;;;15.93;32.61
51053;BME280;37093;37.716;-122.060;2023-04-01T01:43:26;100695.47;;;16.31;31.81
51053;BME280;37093;37.716;-122.060;2023-04-01T01:46:01;100700.60;;;15.97;33.57
51053;BME280;37093;37.716;-122.060;2023-04-01T01:48:32;100699.24;;;15.50;34.37
51053;BME280;37093;37.716;-122.060;2023-04-01T01:51:01;100699.85;;;15.05;34.39
51053;BME280;37093;37.716;-122.060;2023-04-01T01:53:29;100704.75;;;15.18;33.50
51053;BME280;37093;37.716;-122.060;2023-04-01T01:55:58;100706.63;;;15.16;34.63
51053;BME280;37093;37.716;-122.060;2023-04-01T01:58:30;100703.78;;;14.96;34.08
51053;BME280;37093;37.716;-122.060;2023-04-01T02:01:03;100710.88;;;15.27;33.39
51053;BME280;37093;37.716;-122.060;2023-04-01T02:03:36;100712.76;;;14.09;35.37
51053;BME280;37093;37.716;-122.060;2023-04-01T02:06:10;100710.94;;;15.03;34.50
51053;BME280;37093;37.716;-122.060;2023-04-01T02:08:42;100709.11;;;14.38;34.41
51053;BME280;37093;37.716;-122.060;2023-04-01T02:11:13;100711.99;;;14.59;35.43
51053;BME280;37093;37.716;-122.060;2023-04-01T02:13:49;100710.32;;;15.04;34.85
51053;BME280;37093;37.716;-122.060;2023-04-01T02:16:24;100708.41;;;15.34;34.96
51053;BME280;37093;37.716;-122.060;2023-04-01T02:18:56;100708.97;;;15.70;33.67
51053;BME280;37093;37.716;-122.060;2023-04-01T02:21:29;100705.82;;;15.22;33.26
51053;BME280;37093;37.716;-122.060;2023-04-01T02:24:02;100704.75;;;15.25;34.84
51053;BME280;37093;37.716;-122.060;2023-04-01T02:26:32;100706.35;;;15.20;34.50
51053;BME280;37093;37.716;-122.060;2023-04-01T02:29:02;100704.06;;;15.24;34.84
51053;BME280;37093;37.716;-122.060;2023-04-01T02:31:31;100698.29;;;14.93;36.12
51053;BME280;37093;37.716;-122.060;2023-04-01T02:34:00;100696.18;;;15.31;35.40
51053;BME280;37093;37.716;-122.060;2023-04-01T02:36:30;100693.33;;;15.40;34.77
51053;BME280;37093;37.716;-122.060;2023-04-01T02:38:59;100695.54;;;15.46;35.64
51053;BME280;37093;37.716;-122.060;2023-04-01T02:41:28;100694.23;;;15.64;35.20
51053;BME280;37093;37.716;-122.060;2023-04-01T02:43:58;100697.26;;;15.62;34.67
51053;BME280;37093;37.716;-122.060;2023-04-01T02:46:27;100696.66;;;15.99;34.15
51053;BME280;37093;37.716;-122.060;2023-04-01T02:48:55;100696.64;;;16.03;34.03
51053;BME280;37093;37.716;-122.060;2023-04-01T02:51:25;100694.60;;;16.37;33.87
51053;BME280;37093;37.716;-122.060;2023-04-01T02:53:53;100696.83;;;16.00;33.79
51053;BME280;37093;37.716;-122.060;2023-04-01T02:56:22;100692.97;;;15.91;34.07
51053;BME280;37093;37.716;-122.060;2023-04-01T02:58:50;100692.13;;;15.95;34.18
51053;BME280;37093;37.716;-122.060;2023-04-01T03:01:19;100693.84;;;16.07;34.56
51053;BME280;37093;37.716;-122.060;2023-04-01T03:03:47;100696.57;;;16.07;34.75
51053;BME280;37093;37.716;-122.060;2023-04-01T03:06:17;100698.07;;;16.29;34.28
51053;BME280;37093;37.716;-122.060;2023-04-01T03:08:45;100701.44;;;16.04;34.49
51053;BME280;37093;37.716;-122.060;2023-04-01T03:11:14;100703.34;;;16.12;33.63
51053;BME280;37093;37.716;-122.060;2023-04-01T03:13:42;100703.54;;;15.99;33.92
51053;BME280;37093;37.716;-122.060;2023-04-01T03:16:11;100701.15;;;16.15;34.00
51053;BME280;37093;37.716;-122.060;2023-04-01T03:18:39;100707.71;;;16.40;34.27
51053;BME280;37093;37.716;-122.060;2023-04-01T03:21:14;100711.56;;;16.11;33.90
51053;BME280;37093;37.716;-122.060;2023-04-01T03:23:43;100715.80;;;16.11;34.09
51053;BME280;37093;37.716;-122.060;2023-04-01T03:26:12;100722.48;;;16.38;34.51
51053;BME280;37093;37.716;-122.060;2023-04-01T03:28:40;100725.43;;;16.11;33.98
51053;BME280;37093;37.716;-122.060;2023-04-01T03:31:09;100729.48;;;16.08;34.58
51053;BME280;37093;37.716;-122.060;2023-04-01T03:33:37;100732.08;;;16.14;34.53
51053;BME280;37093;37.716;-122.060;2023-04-01T03:36:06;100731.69;;;15.95;34.14
51053;BME280;37093;37.716;-122.060;2023-04-01T03:38:35;100731.62;;;16.08;34.64
51053;BME280;37093;37.716;-122.060;2023-04-01T03:41:03;100730.62;;;16.34;34.51
51053;BME280;37093;37.716;-122.060;2023-04-01T03:43:32;100730.47;;;16.33;34.47
51053;BME280;37093;37.716;-122.060;2023-04-01T03:46:01;100734.23;;;16.07;34.40
51053;BME280;37093;37.716;-122.060;2023-04-01T03:48:31;100740.71;;;16.04;34.44
51053;BME280;37093;37.716;-122.060;2023-04-01T03:50:59;100743.41;;;15.95;34.96
51053;BME280;37093;37.716;-122.060;2023-04-01T03:53:27;100744.25;;;15.93;35.01
51053;BME280;37093;37.716;-122.060;2023-04-01T03:55:56;100744.92;;;16.10;35.16
51053;BME280;37093;37.716;-122.060;2023-04-01T03:58:24;100745.25;;;16.04;34.94
51053;BME280;37093;37.716;-122.060;2023-04-01T04:00:53;100749.60;;;15.74;35.23
51053;BME280;37093;37.716;-122.060;2023-04-01T04:03:21;100748.73;;;15.97;34.88
51053;BME280;37093;37.716;-122.060;2023-04-01T04:05:50;100753.23;;;15.88;35.37
51053;BME280;37093;37.716;-122.060;2023-04-01T04:08:18;100755.21;;;15.90;35.57
51053;BME280;37093;37.716;-122.060;2023-04-01T04:10:47;100750.65;;;15.90;35.62
51053;BME280;37093;37.716;-122.060;2023-04-01T04:13:15;100745.23;;;15.93;35.30
51053;BME280;37093;37.716;-122.060;2023-04-01T04:15:44;100745.50;;;15.83;35.58
51053;BME280;37093;37.716;-122.060;2023-04-01T04:18:12;100742.64;;;15.83;35.34
51053;BME280;37093;37.716;-122.060;2023-04-01T04:20:44;100745.47;;;15.69;35.75
51053;BME280;37093;37.716;-122.060;2023-04-01T04:23:13;100743.10;;;15.56;35.90
51053;BME280;37093;37.716;-122.060;2023-04-01T04:25:42;100740.35;;;15.48;36.42
51053;BME280;37093;37.716;-122.060;2023-04-01T04:28:20;100739.85;;;15.46;36.67
51053;BME280;37093;37.716;-122.060;2023-04-01T04:30:49;100743.37;;;15.40;36.79
51053;BME280;37093;37.716;-122.060;2023-04-01T04:33:17;100744.20;;;15.92;36.37
51053;BME280;37093;37.716;-122.060;2023-04-01T04:35:46;100746.54;;;15.16;36.88
51053;BME280;37093;37.716;-122.060;2023-04-01T04:38:14;100747.34;;;15.05;36.87
51053;BME280;37093;37.716;-122.060;2023-04-01T04:40:43;100751.31;;;15.45;37.25
51053;BME280;37093;37.716;-122.060;2023-04-01T04:43:13;100754.59;;;15.06;37.64
51053;BME280;37093;37.716;-122.060;2023-04-01T04:45:42;100749.75;;;14.84;37.97
51053;BME280;37093;37.716;-122.060;2023-04-01T04:48:13;100754.61;;;15.01;37.69
51053;BME280;37093;37.716;-122.060;2023-04-01T04:50:43;100756.19;;;14.96;37.98
51053;BME280;37093;37.716;-122.060;2023-04-01T04:53:12;100757.59;;;14.71;38.11
51053;BME280;37093;37.716;-122.060;2023-04-01T04:55:43;100763.75;;;14.50;38.22
51053;BME280;37093;37.716;-122.060;2023-04-01T04:58:12;100767.65;;;14.47;38.12
51053;BME280;37093;37.716;-122.060;2023-04-01T05:00:41;100767.79;;;14.66;38.47
51053;BME280;37093;37.716;-122.060;2023-04-01T05:03:10;100771.48;;;14.45;38.52
51053;BME280;37093;37.716;-122.060;2023-04-01T05:05:39;100771.74;;;14.47;38.79
51053;BME280;37093;37.716;-122.060;2023-04-01T05:08:07;100771.33;;;14.44;38.66
51053;BME280;37093;37.716;-122.060;2023-04-01T05:10:36;100775.23;;;14.59;38.73
51053;BME280;37093;37.716;-122.060;2023-04-01T05:13:04;100774.05;;;14.41;39.11
51053;BME280;37093;37.716;-122.060;2023-04-01T05:15:33;100773.52;;;14.37;38.89
51053;BME280;37093;37.716;-122.060;2023-04-01T05:18:01;100774.71;;;14.20;39.10
51053;BME280;37093;37.716;-122.060;2023-04-01T05:20:30;100771.02;;;14.04;39.31
51053;BME280;37093;37.716;-122.060;2023-04-01T05:23:00;100774.84;;;13.72;39.37
51053;BME280;37093;37.716;-122.060;2023-04-01T05:25:28;100776.60;;;13.58;39.88
51053;BME280;37093;37.716;-122.060;2023-04-01T05:27:57;100780.28;;;13.63;40.01
51053;BME280;37093;37.716;-122.060;2023-04-01T05:30:25;100782.33;;;13.64;40.52
51053;BME280;37093;37.716;-122.060;2023-04-01T05:32:54;100788.17;;;13.87;40.23
51053;BME280;37093;37.716;-122.060;2023-04-01T05:35:22;100789.36;;;13.68;39.97
51053;BME280;37093;37.716;-122.060;2023-04-01T05:37:51;100785.76;;;13.76;40.06
51053;BME280;37093;37.716;-122.060;2023-04-01T05:40:19;100784.65;;;13.18;40.53
51053;BME280;37093;37.716;-122.060;2023-04-01T05:42:48;100781.19;;;13.20;40.87
51053;BME280;37093;37.716;-122.060;2023-04-01T05:45:17;100782.64;;;13.39;41.41
51053;BME280;37093;37.716;-122.060;2023-04-01T05:47:45;100781.30;;;13.01;41.29
51053;BME280;37093;37.716;-122.060;2023-04-01T05:50:15;100779.21;;;12.70;41.53
51053;BME280;37093;37.716;-122.060;2023-04-01T05:52:44;100779.53;;;12.33;42.02
51053;BME280;37093;37.716;-122.060;2023-04-01T05:55:12;100776.31;;;11.85;42.19
51053;BME280;37093;37.716;-122.060;2023-04-01T05:57:41;100775.23;;;12.23;42.42
51053;BME280;37093;37.716;-122.060;2023-04-01T06:00:10;100775.74;;;12.63;41.85
51053;BME280;37093;37.716;-122.060;2023-04-01T06:02:39;100772.56;;;12.96;41.31
51053;BME280;37093;37.716;-122.060;2023-04-01T06:05:14;100768.01;;;12.88;41.44
51053;BME280;37093;37.716;-122.060;2023-04-01T06:07:43;100765.54;;;13.33;40.60
51053;BME280;37093;37.716;-122.060;2023-04-01T06:10:15;100761.48;;;13.29;40.64
51053;BME280;37093;37.716;-122.060;2023-04-01T06:12:52;100756.50;;;12.98;41.24
51053;BME280;37093;37.716;-122.060;2023-04-01T06:15:32;100756.11;;;12.71;41.57
51053;BME280;37093;37.716;-122.060;2023-04-01T06:18:36;100758.22;;;12.54;41.79
51053;BME280;37093;37.716;-122.060;2023-04-01T06:21:15;100759.45;;;12.76;41.87
51053;BME280;37093;37.716;-122.060;2023-04-01T06:23:59;100765.04;;;13.17;41.39
51053;BME280;37093;37.716;-122.060;2023-04-01T06:26:34;100766.89;;;13.09;41.08
51053;BME280;37093;37.716;-122.060;2023-04-01T06:29:19;100767.76;;;13.23;40.92
51053;BME280;37093;37.716;-122.060;2023-04-01T06:32:08;100764.44;;;13.10;41.29
51053;BME280;37093;37.716;-122.060;2023-04-01T06:34:52;100762.97;;;13.18;41.09
51053;BME280;37093;37.716;-122.060;2023-04-01T06:37:37;100760.35;;;13.34;41.09
51053;BME280;37093;37.716;-122.060;2023-04-01T06:40:19;100758.79;;;11.97;42.73
51053;BME280;37093;37.716;-122.060;2023-04-01T06:43:01;100752.60;;;12.78;42.18
51053;BME280;37093;37.716;-122.060;2023-04-01T06:45:40;100748.88;;;12.52;42.74
51053;BME280;37093;37.716;-122.060;2023-04-01T06:48:27;100749.11;;;12.21;42.39
51053;BME280;37093;37.716;-122.060;2023-04-01T06:51:05;100752.89;;;12.62;42.45
51053;BME280;37093;37.716;-122.060;2023-04-01T06:53:41;100755.31;;;12.50;42.40
51053;BME280;37093;37.716;-122.060;2023-04-01T06:56:18;100755.64;;;12.34;42.58
51053;BME280;37093;37.716;-122.060;2023-04-01T06:58:49;100754.53;;;11.82;42.93
51053;BME280;37093;37.716;-122.060;2023-04-01T07:01:14;100761.06;;;11.75;42.35
51053;BME280;37093;37.716;-122.060;2023-04-01T07:03:49;100767.34;;;10.91;41.34
51053;BME280;37093;37.716;-122.060;2023-04-01T07:06:26;100767.88;;;13.15;39.73
51053;BME280;37093;37.716;-122.060;2023-04-01T07:09:00;100767.75;;;13.58;39.73
51053;BME280;37093;37.716;-122.060;2023-04-01T07:11:32;100769.63;;;13.13;40.64
51053;BME280;37093;37.716;-122.060;2023-04-01T07:14:06;100771.82;;;12.63;41.45
51053;BME280;37093;37.716;-122.060;2023-04-01T07:16:42;100776.45;;;12.69;41.72
51053;BME280;37093;37.716;-122.060;2023-04-01T07:19:18;100775.78;;;12.06;42.81
51053;BME280;37093;37.716;-122.060;2023-04-01T07:21:51;100772.60;;;12.14;43.07
51053;BME280;37093;37.716;-122.060;2023-04-01T07:24:25;100769.58;;;11.80;43.83
51053;BME280;37093;37.716;-122.060;2023-04-01T07:26:57;100769.60;;;12.07;43.31
51053;BME280;37093;37.716;-122.060;2023-04-01T07:29:26;100768.22;;;12.10;42.88
51053;BME280;37093;37.716;-122.060;2023-04-01T07:32:20;100767.13;;;11.91;43.26
51053;BME280;37093;37.716;-122.060;2023-04-01T07:35:01;100769.15;;;11.96;43.50
51053;BME280;37093;37.716;-122.060;2023-04-01T07:37:39;100769.49;;;11.85;43.23
51053;BME280;37093;37.716;-122.060;2023-04-01T07:40:18;100777.17;;;11.80;43.64
51053;BME280;37093;37.716;-122.060;2023-04-01T07:43:03;100778.54;;;11.95;43.52
51053;BME280;37093;37.716;-122.060;2023-04-01T07:45:39;100777.83;;;11.78;43.59
51053;BME280;37093;37.716;-122.060;2023-04-01T07:48:21;100781.14;;;12.00;43.55
51053;BME280;37093;37.716;-122.060;2023-04-01T07:50:56;100779.86;;;12.03;43.49
51053;BME280;37093;37.716;-122.060;2023-04-01T07:53:36;100777.14;;;12.12;43.28
51053;BME280;37093;37.716;-122.060;2023-04-01T07:56:09;100776.69;;;12.03;43.55
51053;BME280;37093;37.716;-122.060;2023-04-01T07:58:45;100776.35;;;12.01;43.49
51053;BME280;37093;37.716;-122.060;2023-04-01T08:01:27;100773.82;;;12.00;44.03
51053;BME280;37093;37.716;-122.060;2023-04-01T08:04:19;100773.01;;;11.17;44.69
51053;BME280;37093;37.716;-122.060;2023-04-01T08:06:54;100766.68;;;11.59;44.05
51053;BME280;37093;37.716;-122.060;2023-04-01T08:09:36;100762.99;;;11.80;43.90
51053;BME280;37093;37.716;-122.060;2023-04-01T08:12:16;100762.44;;;11.75;43.73
51053;BME280;37093;37.716;-122.060;2023-04-01T08:14:55;100763.01;;;11.90;43.35
51053;BME280;37093;37.716;-122.060;2023-04-01T08:17:32;100763.67;;;11.95;43.23
51053;BME280;37093;37.716;-122.060;2023-04-01T08:20:16;100763.49;;;12.03;43.04
51053;BME280;37093;37.716;-122.060;2023-04-01T08:22:50;100765.71;;;11.97;43.19
51053;BME280;37093;37.716;-122.060;2023-04-01T08:25:24;100761.25;;;11.75;43.83
51053;BME280;37093;37.716;-122.060;2023-04-01T08:27:56;100763.35;;;11.95;43.25
51053;BME280;37093;37.716;-122.060;2023-04-01T08:30:36;100767.85;;;11.95;42.82
51053;BME280;37093;37.716;-122.060;2023-04-01T08:33:13;100770.74;;;11.75;44.01
51053;BME280;37093;37.716;-122.060;2023-04-01T08:35:49;100773.21;;;11.50;44.42
51053;BME280;37093;37.716;-122.060;2023-04-01T08:38:23;100772.47;;;11.65;44.17
51053;BME280;37093;37.716;-122.060;2023-04-01T08:41:00;100777.52;;;10.63;45.63
51053;BME280;37093;37.716;-122.060;2023-04-01T08:43:49;100781.02;;;10.86;46.87
51053;BME280;37093;37.716;-122.060;2023-04-01T08:46:34;100783.58;;;11.06;46.84
51053;BME280;37093;37.716;-122.060;2023-04-01T08:49:14;100777.01;;;10.69;46.04
51053;BME280;37093;37.716;-122.060;2023-04-01T08:52:12;100768.43;;;11.11;45.88
51053;BME280;37093;37.716;-122.060;2023-04-01T08:54:59;100764.13;;;11.06;45.01
51053;BME280;37093;37.716;-122.060;2023-04-01T08:57:42;100759.39;;;10.97;45.09
51053;BME280;37093;37.716;-122.060;2023-04-01T09:00:22;100754.02;;;11.12;45.52
51053;BME280;37093;37.716;-122.060;2023-04-01T09:03:13;100753.58;;;10.48;46.31
51053;BME280;37093;37.716;-122.060;2023-04-01T09:05:58;100754.20;;;10.17;47.04
51053;BME280;37093;37.716;-122.060;2023-04-01T09:08:38;100752.25;;;10.45;47.22
51053;BME280;37093;37.716;-122.060;2023-04-01T09:11:21;100749.30;;;10.02;47.66
51053;BME280;37093;37.716;-122.060;2023-04-01T09:14:07;100746.36;;;10.53;46.93
51053;BME280;37093;37.716;-122.060;2023-04-01T09:17:05;100744.34;;;10.39;46.76
51053;BME280;37093;37.716;-122.060;2023-04-01T09:19:47;100737.80;;;11.00;46.25
51053;BME280;37093;37.716;-122.060;2023-04-01T09:22:31;100730.78;;;10.94;46.32
51053;BME280;37093;37.716;-122.060;2023-04-01T09:26:20;100729.21;;;10.97;45.94
51053;BME280;37093;37.716;-122.060;2023-04-01T09:28:55;100726.61;;;11.40;44.65
51053;BME280;37093;37.716;-122.060;2023-04-01T09:31:42;100723.88;;;11.26;44.13
51053;BME280;37093;37.716;-122.060;2023-04-01T09:34:25;100726.92;;;11.38;44.00
51053;BME280;37093;37.716;-122.060;2023-04-01T09:37:21;100720.38;;;11.31;44.60
51053;BME280;37093;37.716;-122.060;2023-04-01T09:40:09;100715.88;;;11.50;44.64
51053;BME280;37093;37.716;-122.060;2023-04-01T09:42:45;100719.10;;;11.45;44.63
51053;BME280;37093;37.716;-122.060;2023-04-01T09:45:29;100719.47;;;11.11;44.23
51053;BME280;37093;37.716;-122.060;2023-04-01T09:48:11;100715.32;;;11.24;44.82
51053;BME280;37093;37.716;-122.060;2023-04-01T09:50:49;100721.72;;;10.46;45.07
51053;BME280;37093;37.716;-122.060;2023-04-01T09:53:30;100722.65;;;10.86;44.63
51053;BME280;37093;37.716;-122.060;2023-04-01T09:57:01;100729.06;;;10.81;45.17
51053;BME280;37093;37.716;-122.060;2023-04-01T10:00:13;100728.40;;;10.91;45.57
51053;BME280;37093;37.716;-122.060;2023-04-01T10:03:02;100734.47;;;10.88;44.87
51053;BME280;37093;37.716;-122.060;2023-04-01T10:06:28;100734.77;;;11.04;45.09
51053;BME280;37093;37.716;-122.060;2023-04-01T10:10:47;100732.40;;;11.03;45.08
51053;BME280;37093;37.716;-122.060;2023-04-01T10:13:36;100736.98;;;10.57;45.23
51053;BME280;37093;37.716;-122.060;2023-04-01T10:16:33;100729.02;;;10.47;45.29
51053;BME280;37093;37.716;-122.060;2023-04-01T10:19:55;100727.51;;;10.87;44.79
51053;BME280;37093;37.716;-122.060;2023-04-01T10:22:42;100728.58;;;10.91;44.88
51053;BME280;37093;37.716;-122.060;2023-04-01T10:25:29;100730.15;;;10.75;45.02
51053;BME280;37093;37.716;-122.060;2023-04-01T10:28:44;100724.96;;;10.64;45.10
51053;BME280;37093;37.716;-122.060;2023-04-01T10:31:51;100722.51;;;10.65;45.04
51053;BME280;37093;37.716;-122.060;2023-04-01T10:34:46;100722.70;;;10.54;44.93
51053;BME280;37093;37.716;-122.060;2023-04-01T10:37:43;100720.48;;;10.51;44.95
51053;BME280;37093;37.716;-122.060;2023-04-01T10:40:36;100725.85;;;10.44;45.06
51053;BME280;37093;37.716;-122.060;2023-04-01T10:43:30;100723.46;;;10.60;44.87
51053;BME280;37093;37.716;-122.060;2023-04-01T10:47:43;100727.59;;;10.76;44.65
51053;BME280;37093;37.716;-122.060;2023-04-01T10:50:29;100720.03;;;10.59;44.48
51053;BME280;37093;37.716;-122.060;2023-04-01T10:53:33;100720.69;;;10.88;44.30
51053;BME280;37093;37.716;-122.060;2023-04-01T10:56:40;100725.15;;;10.79;44.40
51053;BME280;37093;37.716;-122.060;2023-04-01T10:59:36;100724.02;;;10.68;44.06
51053;BME280;37093;37.716;-122.060;2023-04-01T11:03:41;100721.61;;;10.54;44.94
51053;BME280;37093;37.716;-122.060;2023-04-01T11:14:56;100712.08;;;10.64;46.42
51053;BME280;37093;37.716;-122.060;2023-04-01T11:17:59;100703.51;;;9.19;44.76
51053;BME280;37093;37.716;-122.060;2023-04-01T11:20:52;100693.07;;;10.69;44.30
51053;BME280;37093;37.716;-122.060;2023-04-01T11:23:45;100690.89;;;10.60;43.54
51053;BME280;37093;37.716;-122.060;2023-04-01T11:26:27;100686.19;;;10.21;44.65
51053;BME280;37093;37.716;-122.060;2023-04-01T11:29:11;100686.67;;;10.22;45.72
51053;BME280;37093;37.716;-122.060;2023-04-01T11:31:52;100687.93;;;10.41;45.02
51053;BME280;37093;37.716;-122.060;2023-04-01T11:34:45;100682.20;;;9.71;46.37
51053;BME280;37093;37.716;-122.060;2023-04-01T11:37:31;100672.74;;;9.51;48.22
51053;BME280;37093;37.716;-122.060;2023-04-01T11:40:12;100664.70;;;9.01;48.58
51053;BME280;37093;37.716;-122.060;2023-04-01T11:42:49;100659.11;;;7.91;50.75
51053;BME280;37093;37.716;-122.060;2023-04-01T11:45:29;100657.53;;;8.14;51.17
51053;BME280;37093;37.716;-122.060;2023-04-01T11:48:14;100659.09;;;8.39;51.27
51053;BME280;37093;37.716;-122.060;2023-04-01T11:50:56;100663.77;;;8.02;53.59
51053;BME280;37093;37.716;-122.060;2023-04-01T11:53:35;100666.29;;;6.69;57.38
51053;BME280;37093;37.716;-122.060;2023-04-01T11:56:14;100666.19;;;6.97;57.31
51053;BME280;37093;37.716;-122.060;2023-04-01T11:59:00;100674.94;;;7.80;55.72
51053;BME280;37093;37.716;-122.060;2023-04-01T12:01:37;100671.65;;;8.23;53.04
51053;BME280;37093;37.716;-122.060;2023-04-01T12:04:24;100678.59;;;8.03;55.58
51053;BME280;37093;37.716;-122.060;2023-04-01T12:07:03;100678.09;;;8.69;51.82
51053;BME280;37093;37.716;-122.060;2023-04-01T12:09:40;100674.23;;;8.92;51.86
51053;BME280;37093;37.716;-122.060;2023-04-01T12:12:22;100674.77;;;7.99;53.96
51053;BME280;37093;37.716;-122.060;2023-04-01T12:15:02;100669.71;;;8.98;51.80
51053;BME280;37093;37.716;-122.060;2023-04-01T12:17:39;100669.19;;;9.04;51.08
51053;BME280;37093;37.716;-122.060;2023-04-01T12:20:26;100670.31;;;9.04;49.56
51053;BME280;37093;37.716;-122.060;2023-04-01T12:23:04;100668.68;;;9.64;48.32
51053;BME280;37093;37.716;-122.060;2023-04-01T12:25:51;100671.75;;;9.73;47.13
51053;BME280;37093;37.716;-122.060;2023-04-01T12:28:29;100675.08;;;9.99;46.48
51053;BME280;37093;37.716;-122.060;2023-04-01T12:31:15;100672.93;;;9.92;46.44
51053;BME280;37093;37.716;-122.060;2023-04-01T12:34:13;100671.26;;;10.15;45.86
51053;BME280;37093;37.716;-122.060;2023-04-01T12:36:56;100673.67;;;10.24;45.72
51053;BME280;37093;37.716;-122.060;2023-04-01T12:39:40;100675.07;;;10.25;45.59
51053;BME280;37093;37.716;-122.060;2023-04-01T12:42:17;100673.46;;;10.70;45.52
51053;BME280;37093;37.716;-122.060;2023-04-01T12:45:01;100669.53;;;10.67;45.33
51053;BME280;37093;37.716;-122.060;2023-04-01T12:49:02;100660.04;;;10.36;45.79
51053;BME280;37093;37.716;-122.060;2023-04-01T12:51:55;100670.38;;;10.16;45.61
51053;BME280;37093;37.716;-122.060;2023-04-01T12:54:50;100678.60;;;10.46;46.28
51053;BME280;37093;37.716;-122.060;2023-04-01T12:57:43;100683.80;;;10.04;45.77
51053;BME280;37093;37.716;-122.060;2023-04-01T13:00:34;100684.68;;;9.88;46.49
51053;BME280;37093;37.716;-122.060;2023-04-01T13:03:27;100679.38;;;10.07;46.09
51053;BME280;37093;37.716;-122.060;2023-04-01T13:06:32;100676.27;;;10.63;45.78
51053;BME280;37093;37.716;-122.060;2023-04-01T13:09:16;100674.19;;;10.42;45.37
51053;BME280;37093;37.716;-122.060;2023-04-01T13:11:58;100674.85;;;10.30;46.07
51053;BME280;37093;37.716;-122.060;2023-04-01T13:14:50;100677.86;;;10.33;45.86
51053;BME280;37093;37.716;-122.060;2023-04-01T13:17:28;100680.20;;;9.79;45.79
51053;BME280;37093;37.716;-122.060;2023-04-01T13:20:11;100681.89;;;10.46;45.38
51053;BME280;37093;37.716;-122.060;2023-04-01T13:22:54;100679.22;;;10.26;45.02
51053;BME280;37093;37.716;-122.060;2023-04-01T13:25:34;100682.58;;;10.00;44.64
51053;BME280;37093;37.716;-122.060;2023-04-01T13:28:10;100687.29;;;10.32;45.23